Time;durP1;ratioP1;P1;durP2;ratioP2;P2;SDS_P1;SDS_P2;PMS_P1;PMS_P2;Temp;Humidity;BMP_temperature;BMP_pressure;BME280_temperature;BME280_humidity;BME280_pressure;Samples;Min_cycle;Max_cycle;Signal;HPM_P1;HPM_P2
2024/01/27 00:01:10;;;;;;;;;19.00;16.33;;;;;;;;5060568;28;11492;-82
2024/01/27 00:03:38;;;;;;;;;13.33;13.33;;;;;;;;5066342;28;11520;-81
2024/01/27 00:06:07;;;;;;;;;26.67;23.00;;;;;;;;5073537;28;11561;-84
2024/01/27 00:08:34;;;;;;;;;18.67;18.67;;;;;;;;5067389;28;11648;-76
2024/01/27 00:11:01;;;;;;;;;27.00;23.33;;;;;;;;5078204;28;11507;-77
2024/01/27 00:13:29;;;;;;;;;22.33;22.33;;;;;;;;5072726;28;12328;-81
2024/01/27 00:15:56;;;;;;;;;22.67;18.67;;;;;;;;5066384;28;12376;-82
2024/01/27 00:18:23;;;;;;;;;22.00;20.33;;;;;;;;5069685;28;11555;-82
2024/01/27 00:20:51;;;;;;;;;23.00;18.67;;;;;;;;5069231;28;11512;-79
2024/01/27 00:23:19;;;;;;;;;17.67;17.67;;;;;;;;5068937;28;11534;-79
2024/01/27 00:25:47;;;;;;;;;28.00;24.67;;;;;;;;5069050;28;11508;-78
2024/01/27 00:28:14;;;;;;;;;25.33;22.00;;;;;;;;5061125;28;11513;-82
2024/01/27 00:30:41;;;;;;;;;32.33;28.33;;;;;;;;5064916;28;11501;-79
2024/01/27 00:33:08;;;;;;;;;20.67;17.67;;;;;;;;5069560;28;11689;-81
2024/01/27 00:35:36;;;;;;;;;21.33;19.33;;;;;;;;5064540;28;11628;-82
2024/01/27 00:38:03;;;;;;;;;23.00;22.67;;;;;;;;5070028;28;11558;-80
2024/01/27 00:40:34;;;;;;;;;25.67;22.00;;;;;;;;5057254;28;8846;-83
2024/01/27 00:43:03;;;;;;;;;23.33;23.33;;;;;;;;5069254;28;11551;-79
2024/01/27 00:45:30;;;;;;;;;20.00;17.67;;;;;;;;5069210;28;8852;-80
2024/01/27 00:47:57;;;;;;;;;24.00;23.00;;;;;;;;5073345;28;11550;-79
2024/01/27 00:50:24;;;;;;;;;20.00;15.00;;;;;;;;5070703;28;11517;-82
2024/01/27 00:52:52;;;;;;;;;23.33;22.67;;;;;;;;5069840;28;11533;-83
2024/01/27 00:55:19;;;;;;;;;22.33;19.00;;;;;;;;5069056;28;11542;-81
2024/01/27 00:57:48;;;;;;;;;17.33;17.33;;;;;;;;5068539;28;11548;-80
2024/01/27 01:00:16;;;;;;;;;22.00;19.00;;;;;;;;5066835;28;11524;-78
2024/01/27 01:02:43;;;;;;;;;23.00;16.67;;;;;;;;5067904;28;12349;-81
2024/01/27 01:05:10;;;;;;;;;16.33;16.33;;;;;;;;5068949;28;8872;-81
2024/01/27 01:07:37;;;;;;;;;25.00;19.00;;;;;;;;5069238;28;8891;-79
2024/01/27 01:10:05;;;;;;;;;23.33;20.33;;;;;;;;5068785;28;11506;-81
2024/01/27 01:12:33;;;;;;;;;22.00;20.33;;;;;;;;5069125;28;9669;-80
2024/01/27 01:15:02;;;;;;;;;21.67;20.67;;;;;;;;5068783;28;8891;-80
2024/01/27 01:17:29;;;;;;;;;24.33;20.33;;;;;;;;5068423;28;8861;-79
2024/01/27 01:19:56;;;;;;;;;20.00;18.67;;;;;;;;5067584;28;9666;-79
2024/01/27 01:22:24;;;;;;;;;22.00;18.67;;;;;;;;5069643;28;11534;-79
2024/01/27 01:24:51;;;;;;;;;22.67;21.33;;;;;;;;5070785;28;8872;-78
2024/01/27 01:27:21;;;;;;;;;21.67;20.33;;;;;;;;5071775;28;8876;-80
2024/01/27 01:29:48;;;;;;;;;24.33;23.33;;;;;;;;5073874;28;8859;-80
2024/01/27 01:32:17;;;;;;;;;16.67;16.67;;;;;;;;5072368;28;8807;-80
2024/01/27 01:34:44;;;;;;;;;23.67;23.33;;;;;;;;5073498;28;8891;-80
2024/01/27 01:37:13;;;;;;;;;24.00;23.67;;;;;;;;5068667;28;8959;-79
2024/01/27 01:39:41;;;;;;;;;29.33;27.00;;;;;;;;5071493;28;8938;-81
2024/01/27 01:42:11;;;;;;;;;24.33;23.33;;;;;;;;5069438;28;8876;-79
2024/01/27 01:44:39;;;;;;;;;22.33;22.33;;;;;;;;5070960;28;8848;-79
2024/01/27 01:47:09;;;;;;;;;24.00;24.00;;;;;;;;5072691;28;8867;-78
2024/01/27 01:49:37;;;;;;;;;23.67;20.00;;;;;;;;5071688;28;8851;-80
2024/01/27 01:52:05;;;;;;;;;18.00;18.00;;;;;;;;5067962;28;8982;-79
2024/01/27 01:54:33;;;;;;;;;22.00;19.67;;;;;;;;5067390;28;8882;-80
2024/01/27 01:57:00;;;;;;;;;21.67;21.67;;;;;;;;5067271;28;8878;-80
2024/01/27 01:59:27;;;;;;;;;27.67;25.67;;;;;;;;5067771;28;9667;-80
2024/01/27 02:01:54;;;;;;;;;19.33;19.33;;;;;;;;5067352;28;8862;-80
2024/01/27 02:04:22;;;;;;;;;21.67;20.33;;;;;;;;5068074;28;8864;-78
2024/01/27 02:06:50;;;;;;;;;19.00;18.67;;;;;;;;5065841;28;8898;-80
2024/01/27 02:09:17;;;;;;;;;19.67;17.33;;;;;;;;5067716;28;8860;-82
2024/01/27 02:11:45;;;;;;;;;29.00;22.33;;;;;;;;5067714;28;8959;-81
2024/01/27 02:14:12;;;;;;;;;14.00;14.00;;;;;;;;5069485;28;9606;-80
2024/01/27 02:16:39;;;;;;;;;24.33;19.00;;;;;;;;5071984;28;8870;-82
2024/01/27 02:19:07;;;;;;;;;32.00;24.67;;;;;;;;5067204;28;8861;-80
2024/01/27 02:21:37;;;;;;;;;26.00;24.00;;;;;;;;5063103;28;8849;-79
2024/01/27 02:24:12;;;;;;;;;29.33;24.00;;;;;;;;5067727;28;8854;-83
2024/01/27 02:26:39;;;;;;;;;25.33;22.00;;;;;;;;5064826;28;8874;-80
2024/01/27 02:29:06;;;;;;;;;32.33;28.33;;;;;;;;5071876;28;8955;-79
2024/01/27 02:31:34;;;;;;;;;23.67;23.67;;;;;;;;5071775;28;8816;-79
2024/01/27 02:34:01;;;;;;;;;30.67;27.00;;;;;;;;5058569;28;8837;-78
2024/01/27 02:36:28;;;;;;;;;24.00;21.33;;;;;;;;5062550;28;9285;-80
2024/01/27 02:38:55;;;;;;;;;23.67;22.00;;;;;;;;5058699;28;8851;-79
2024/01/27 02:41:24;;;;;;;;;28.00;18.33;;;;;;;;5071793;28;8856;-79
2024/01/27 02:43:51;;;;;;;;;27.33;24.00;;;;;;;;5064504;28;8863;-80
2024/01/27 02:46:18;;;;;;;;;28.67;23.00;;;;;;;;5072088;28;8857;-80
2024/01/27 02:48:46;;;;;;;;;28.00;25.33;;;;;;;;5071435;28;8837;-82
2024/01/27 02:51:13;;;;;;;;;28.00;28.00;;;;;;;;5063031;28;9001;-82
2024/01/27 02:53:41;;;;;;;;;32.67;26.00;;;;;;;;5065625;28;8846;-81
2024/01/27 02:56:09;;;;;;;;;25.00;22.33;;;;;;;;5070081;28;8974;-80
2024/01/27 02:58:37;;;;;;;;;36.67;29.00;;;;;;;;5071423;28;8852;-79
2024/01/27 03:01:05;;;;;;;;;29.00;26.00;;;;;;;;5071729;28;8796;-79
2024/01/27 03:03:34;;;;;;;;;25.00;25.00;;;;;;;;5072134;28;8848;-79
2024/01/27 03:06:01;;;;;;;;;24.67;21.67;;;;;;;;5073279;28;8848;-79
2024/01/27 03:08:28;;;;;;;;;33.00;28.67;;;;;;;;5061858;28;9004;-82
2024/01/27 03:10:56;;;;;;;;;23.33;23.33;;;;;;;;5074941;28;8986;-81
2024/01/27 03:13:23;;;;;;;;;30.00;25.33;;;;;;;;5078091;28;8856;-79
2024/01/27 03:15:52;;;;;;;;;24.33;24.00;;;;;;;;5078300;28;9003;-77
2024/01/27 03:18:19;;;;;;;;;23.00;23.00;;;;;;;;5078442;28;8860;-78
2024/01/27 03:20:46;;;;;;;;;25.67;23.33;;;;;;;;5078490;28;8825;-77
2024/01/27 03:23:14;;;;;;;;;21.67;17.33;;;;;;;;5080944;28;9006;-81
2024/01/27 03:25:41;;;;;;;;;26.67;20.00;;;;;;;;5072011;28;8840;-79
2024/01/27 03:28:08;;;;;;;;;26.00;23.00;;;;;;;;5066202;28;8946;-81
2024/01/27 03:30:35;;;;;;;;;27.67;23.67;;;;;;;;5067784;28;8775;-79
2024/01/27 03:33:06;;;;;;;;;23.33;23.33;;;;;;;;5070695;28;8947;-81
2024/01/27 03:35:33;;;;;;;;;27.67;25.67;;;;;;;;5062900;28;8842;-81
2024/01/27 03:38:00;;;;;;;;;23.00;23.00;;;;;;;;5052714;28;8851;-80
2024/01/27 03:40:27;;;;;;;;;28.67;27.67;;;;;;;;5061684;28;8833;-80
2024/01/27 03:42:55;;;;;;;;;26.00;26.00;;;;;;;;5058760;28;8876;-79
2024/01/27 03:45:22;;;;;;;;;31.67;27.67;;;;;;;;5068088;28;9730;-84
2024/01/27 03:47:49;;;;;;;;;28.00;27.67;;;;;;;;5070507;28;8861;-80
2024/01/27 03:50:18;;;;;;;;;36.67;31.00;;;;;;;;5067467;28;9674;-80
2024/01/27 03:52:45;;;;;;;;;25.33;25.33;;;;;;;;5072470;28;9671;-82
2024/01/27 03:55:12;;;;;;;;;31.67;28.67;;;;;;;;5073917;28;8879;-82
2024/01/27 03:57:40;;;;;;;;;26.00;26.00;;;;;;;;5070715;28;8898;-83
2024/01/27 04:00:09;;;;;;;;;30.67;26.33;;;;;;;;5069394;28;8867;-83
2024/01/27 04:02:36;;;;;;;;;28.67;26.00;;;;;;;;5067685;28;8864;-80
2024/01/27 04:05:03;;;;;;;;;36.33;29.67;;;;;;;;5067344;28;8863;-80
2024/01/27 04:07:32;;;;;;;;;34.33;31.67;;;;;;;;5065745;28;8911;-78
2024/01/27 04:10:03;;;;;;;;;32.33;26.00;;;;;;;;5069839;28;8855;-78
2024/01/27 04:12:33;;;;;;;;;28.33;28.00;;;;;;;;5069908;28;8947;-79
2024/01/27 04:15:00;;;;;;;;;30.67;25.00;;;;;;;;5069737;28;8856;-81
2024/01/27 04:17:27;;;;;;;;;29.67;28.33;;;;;;;;5047755;28;8878;-81
2024/01/27 04:19:54;;;;;;;;;34.33;31.00;;;;;;;;5069302;28;8864;-79
2024/01/27 04:22:22;;;;;;;;;27.67;27.67;;;;;;;;5069839;28;8853;-80
2024/01/27 04:24:50;;;;;;;;;31.67;31.67;;;;;;;;5069048;28;8868;-79
2024/01/27 04:27:18;;;;;;;;;36.33;32.67;;;;;;;;5063258;28;8959;-79
2024/01/27 04:29:45;;;;;;;;;34.00;29.33;;;;;;;;5063790;28;8862;-79
2024/01/27 04:32:12;;;;;;;;;25.67;25.67;;;;;;;;5057256;28;9633;-79
2024/01/27 04:34:40;;;;;;;;;29.33;25.67;;;;;;;;5068992;28;8844;-80
2024/01/27 04:37:07;;;;;;;;;22.00;18.33;;;;;;;;5056778;28;8873;-80
2024/01/27 04:39:34;;;;;;;;;34.00;29.67;;;;;;;;5062169;28;8856;-80
2024/01/27 04:42:03;;;;;;;;;31.67;31.33;;;;;;;;5061565;28;9231;-80
2024/01/27 04:44:30;;;;;;;;;20.33;20.33;;;;;;;;5068733;28;8848;-79
2024/01/27 04:46:58;;;;;;;;;28.33;28.33;;;;;;;;5067643;28;8917;-79
2024/01/27 04:49:25;;;;;;;;;29.67;27.67;;;;;;;;5068080;28;8856;-79
2024/01/27 04:51:52;;;;;;;;;33.67;26.67;;;;;;;;5069397;28;8898;-79
2024/01/27 04:54:20;;;;;;;;;32.33;30.00;;;;;;;;5070553;28;8859;-79
2024/01/27 04:56:47;;;;;;;;;30.67;26.67;;;;;;;;5071929;28;8840;-78
2024/01/27 04:59:16;;;;;;;;;39.67;33.33;;;;;;;;5072805;28;8971;-80
2024/01/27 05:01:46;;;;;;;;;36.67;32.33;;;;;;;;5060992;28;8797;-78
2024/01/27 05:04:13;;;;;;;;;30.00;29.00;;;;;;;;5073475;28;8865;-79
2024/01/27 05:06:46;;;;;;;;;30.67;25.67;;;;;;;;5072333;28;8857;-80
2024/01/27 05:09:13;;;;;;;;;26.67;26.67;;;;;;;;5070678;28;8887;-80
2024/01/27 05:11:45;;;;;;;;;25.00;25.00;;;;;;;;5067903;28;8860;-79
2024/01/27 05:14:12;;;;;;;;;29.67;28.00;;;;;;;;5067666;28;8864;-78
2024/01/27 05:16:41;;;;;;;;;36.67;32.00;;;;;;;;5071560;28;8887;-78
2024/01/27 05:19:08;;;;;;;;;34.33;31.00;;;;;;;;5071159;28;8848;-82
2024/01/27 05:21:36;;;;;;;;;32.00;29.33;;;;;;;;5069156;28;8852;-78
2024/01/27 05:24:03;;;;;;;;;32.67;30.67;;;;;;;;5067387;28;8873;-78
2024/01/27 05:26:30;;;;;;;;;44.67;37.00;;;;;;;;5049952;28;8862;-79
2024/01/27 05:28:58;;;;;;;;;28.67;27.33;;;;;;;;5065070;28;8864;-81
2024/01/27 05:31:26;;;;;;;;;35.00;30.00;;;;;;;;5065588;28;8828;-79
2024/01/27 05:33:57;;;;;;;;;35.33;34.00;;;;;;;;5067952;28;8864;-79
2024/01/27 05:36:26;;;;;;;;;46.00;42.00;;;;;;;;5067895;28;8852;-81
2024/01/27 05:38:53;;;;;;;;;43.67;35.33;;;;;;;;5065882;28;8868;-80
2024/01/27 05:41:24;;;;;;;;;45.67;38.00;;;;;;;;5067696;28;8868;-79
2024/01/27 05:43:51;;;;;;;;;36.00;29.33;;;;;;;;5055845;28;8849;-82
2024/01/27 05:46:18;;;;;;;;;31.33;28.67;;;;;;;;5067488;28;8937;-79
2024/01/27 05:48:45;;;;;;;;;35.33;33.67;;;;;;;;5068315;28;8837;-81
2024/01/27 05:51:16;;;;;;;;;42.33;35.67;;;;;;;;5066615;28;8852;-81
2024/01/27 05:53:43;;;;;;;;;35.33;33.00;;;;;;;;5067807;28;8880;-81
2024/01/27 05:56:11;;;;;;;;;37.67;33.33;;;;;;;;5066622;28;8828;-82
2024/01/27 05:58:38;;;;;;;;;27.00;25.67;;;;;;;;5068165;28;8856;-82
2024/01/27 06:01:05;;;;;;;;;27.67;26.67;;;;;;;;5067535;28;8812;-80
2024/01/27 06:03:33;;;;;;;;;33.67;26.67;;;;;;;;5067918;28;8872;-82
2024/01/27 06:06:01;;;;;;;;;29.67;26.00;;;;;;;;5066640;28;8844;-83
2024/01/27 06:08:30;;;;;;;;;36.33;29.33;;;;;;;;5068026;28;8870;-83
2024/01/27 06:10:57;;;;;;;;;34.00;28.33;;;;;;;;5066841;28;8867;-81
2024/01/27 06:13:25;;;;;;;;;33.33;28.67;;;;;;;;5068154;28;8852;-80
2024/01/27 06:15:52;;;;;;;;;27.00;27.00;;;;;;;;5068644;28;9611;-78
2024/01/27 06:18:20;;;;;;;;;28.00;28.00;;;;;;;;5069527;28;8845;-80
2024/01/27 06:20:48;;;;;;;;;32.33;30.33;;;;;;;;5067271;28;8905;-82
2024/01/27 06:23:15;;;;;;;;;28.00;28.00;;;;;;;;5074326;28;8856;-73
2024/01/27 06:25:44;;;;;;;;;24.00;24.00;;;;;;;;5075482;28;8963;-74
2024/01/27 06:28:11;;;;;;;;;40.00;33.00;;;;;;;;5072468;28;8852;-77
2024/01/27 06:30:41;;;;;;;;;25.00;19.33;;;;;;;;5065824;28;8793;-75
2024/01/27 06:33:08;;;;;;;;;31.33;31.33;;;;;;;;5067490;28;8862;-76
2024/01/27 06:35:35;;;;;;;;;32.67;32.00;;;;;;;;5067086;28;8906;-74
2024/01/27 06:38:02;;;;;;;;;40.33;34.00;;;;;;;;5065726;28;8880;-74
2024/01/27 06:40:30;;;;;;;;;32.00;32.00;;;;;;;;5064706;28;8871;-74
2024/01/27 06:42:58;;;;;;;;;34.67;33.67;;;;;;;;5055762;28;8838;-73
2024/01/27 06:45:26;;;;;;;;;0.00;0.00;;;;;;;;5069168;28;8844;-79
2024/01/27 06:47:53;;;;;;;;;27.00;26.00;;;;;;;;5071070;28;8857;-76
2024/01/27 06:50:20;;;;;;;;;31.33;30.33;;;;;;;;5058646;28;8848;-81
2024/01/27 06:52:48;;;;;;;;;35.67;32.67;;;;;;;;5070227;28;8832;-77
2024/01/27 06:55:16;;;;;;;;;34.67;34.00;;;;;;;;5073238;28;8859;-77
2024/01/27 06:57:43;;;;;;;;;39.33;35.33;;;;;;;;5070084;28;9596;-81
2024/01/27 07:00:24;;;;;;;;;41.67;35.33;;;;;;;;5072069;28;8852;-78
2024/01/27 07:02:51;;;;;;;;;37.00;37.00;;;;;;;;5072016;28;8860;-78
2024/01/27 07:05:18;;;;;;;;;38.33;33.33;;;;;;;;5072202;28;8852;-79
2024/01/27 07:07:45;;;;;;;;;40.00;36.33;;;;;;;;5071488;28;8872;-76
2024/01/27 07:10:12;;;;;;;;;34.67;32.00;;;;;;;;5071373;28;8832;-75
2024/01/27 07:12:40;;;;;;;;;38.67;36.67;;;;;;;;5069013;28;8898;-75
2024/01/27 07:15:08;;;;;;;;;49.00;40.33;;;;;;;;5070317;28;8853;-80
2024/01/27 07:17:36;;;;;;;;;43.67;36.00;;;;;;;;5068868;28;8872;-79
2024/01/27 07:20:05;;;;;;;;;51.00;43.00;;;;;;;;5070097;28;8880;-82
2024/01/27 07:22:33;;;;;;;;;41.67;39.67;;;;;;;;5056613;28;8905;-79
2024/01/27 07:25:00;;;;;;;;;44.00;40.00;;;;;;;;5069818;28;8852;-74
2024/01/27 07:27:27;;;;;;;;;36.33;29.33;;;;;;;;5069650;28;9742;-75
2024/01/27 07:29:55;;;;;;;;;39.00;34.33;;;;;;;;5070143;28;8906;-72
2024/01/27 07:32:22;;;;;;;;;36.67;34.33;;;;;;;;5068904;28;8824;-73
2024/01/27 07:34:51;;;;;;;;;34.33;30.33;;;;;;;;5068381;28;8868;-72
2024/01/27 07:37:18;;;;;;;;;35.33;34.67;;;;;;;;5063813;28;8844;-77
2024/01/27 07:39:46;;;;;;;;;36.67;36.67;;;;;;;;5056288;28;8862;-73
2024/01/27 07:42:14;;;;;;;;;35.00;34.33;;;;;;;;5052891;28;8869;-77
2024/01/27 07:44:43;;;;;;;;;37.00;33.67;;;;;;;;5063598;28;8856;-76
2024/01/27 07:47:10;;;;;;;;;32.67;32.67;;;;;;;;5070201;28;8853;-78
2024/01/27 07:49:38;;;;;;;;;27.00;26.33;;;;;;;;5068313;28;9595;-79
2024/01/27 07:52:07;;;;;;;;;28.00;28.00;;;;;;;;5069418;28;8888;-79
2024/01/27 07:54:38;;;;;;;;;25.33;25.33;;;;;;;;5068689;28;8876;-79
2024/01/27 07:57:06;;;;;;;;;34.33;30.00;;;;;;;;5070156;28;8860;-77
2024/01/27 07:59:33;;;;;;;;;41.33;34.00;;;;;;;;5068426;28;8840;-80
2024/01/27 08:02:03;;;;;;;;;36.67;36.67;;;;;;;;5068736;28;8820;-78
2024/01/27 08:04:30;;;;;;;;;40.00;36.67;;;;;;;;5069394;28;8867;-79
2024/01/27 08:06:57;;;;;;;;;33.00;31.33;;;;;;;;5069079;28;8852;-74
2024/01/27 08:09:26;;;;;;;;;41.33;34.33;;;;;;;;5068719;28;8836;-75
2024/01/27 08:11:53;;;;;;;;;37.00;33.00;;;;;;;;5068175;28;9007;-75
2024/01/27 08:14:21;;;;;;;;;30.00;25.67;;;;;;;;5068493;28;8844;-79
2024/01/27 08:16:48;;;;;;;;;29.33;25.00;;;;;;;;5069628;28;8833;-77
2024/01/27 08:19:19;;;;;;;;;36.00;32.00;;;;;;;;5068547;28;8853;-79
2024/01/27 08:21:47;;;;;;;;;28.67;28.67;;;;;;;;5069040;28;8845;-73
2024/01/27 08:24:16;;;;;;;;;46.00;42.33;;;;;;;;5069413;28;8904;-79
2024/01/27 08:26:45;;;;;;;;;34.33;34.33;;;;;;;;5068928;28;9685;-73
2024/01/27 08:29:13;;;;;;;;;54.33;41.33;;;;;;;;5057915;28;8840;-72
2024/01/27 08:31:40;;;;;;;;;59.67;47.00;;;;;;;;5069041;28;8797;-76
2024/01/27 08:34:07;;;;;;;;;69.00;56.75;;;;;;;;5071121;28;8866;-75
2024/01/27 08:36:39;;;;;;;;;66.00;56.33;;;;;;;;5073295;28;8863;-75
2024/01/27 08:39:19;;;;;;;;;65.00;53.00;;;;;;;;5071376;28;8864;-80
2024/01/27 08:41:47;;;;;;;;;53.00;46.00;;;;;;;;5066595;28;8965;-77
2024/01/27 08:44:15;;;;;;;;;45.67;37.67;;;;;;;;5062635;28;8845;-78
2024/01/27 08:46:44;;;;;;;;;47.33;44.67;;;;;;;;5072391;28;8899;-74
2024/01/27 08:49:14;;;;;;;;;56.00;49.00;;;;;;;;5071564;28;9595;-78
2024/01/27 08:51:44;;;;;;;;;43.00;34.00;;;;;;;;5068914;28;8844;-72
2024/01/27 08:54:11;;;;;;;;;53.00;44.33;;;;;;;;5071177;28;8921;-73
2024/01/27 08:56:41;;;;;;;;;53.33;44.00;;;;;;;;5068091;28;8884;-72
2024/01/27 08:59:10;;;;;;;;;45.00;41.00;;;;;;;;5066654;28;8875;-72
2024/01/27 09:01:37;;;;;;;;;63.00;51.67;;;;;;;;5067130;28;8825;-73
2024/01/27 09:04:04;;;;;;;;;60.33;45.33;;;;;;;;5067415;28;8887;-74
2024/01/27 09:06:32;;;;;;;;;66.00;49.00;;;;;;;;5066877;28;8848;-73
2024/01/27 09:08:59;;;;;;;;;49.00;45.00;;;;;;;;5067301;28;8852;-75
2024/01/27 09:11:27;;;;;;;;;40.67;37.00;;;;;;;;5067884;28;8995;-72
2024/01/27 09:13:54;;;;;;;;;44.00;41.00;;;;;;;;5067643;28;8860;-72
2024/01/27 09:16:23;;;;;;;;;63.33;51.00;;;;;;;;5068255;28;8848;-71
2024/01/27 09:18:51;;;;;;;;;61.67;51.33;;;;;;;;5066556;28;8892;-74
2024/01/27 09:21:20;;;;;;;;;76.33;60.67;;;;;;;;5070051;28;8852;-74
2024/01/27 09:23:47;;;;;;;;;76.00;60.67;;;;;;;;5069909;28;8856;-75
2024/01/27 09:26:18;;;;;;;;;72.00;59.00;;;;;;;;5066962;28;8860;-74
2024/01/27 09:28:53;;;;;;;;;68.33;56.33;;;;;;;;5064868;28;9696;-73
2024/01/27 09:31:22;;;;;;;;;45.33;42.00;;;;;;;;5067237;28;8804;-75
2024/01/27 09:33:52;;;;;;;;;38.00;38.00;;;;;;;;5065825;28;8875;-74
2024/01/27 09:36:20;;;;;;;;;30.33;28.33;;;;;;;;5068391;28;12332;-72
2024/01/27 09:38:48;;;;;;;;;27.00;21.75;;;;;;;;5068294;28;11561;-75
2024/01/27 09:41:16;;;;;;;;;20.00;15.50;;;;;;;;5067816;28;11592;-75
2024/01/27 09:43:45;;;;;;;;;22.25;18.50;;;;;;;;5054666;28;11509;-78
2024/01/27 09:46:20;;;;;;;;;23.25;18.00;;;;;;;;5067387;28;12319;-77
2024/01/27 09:48:50;;;;;;;;;21.75;17.25;;;;;;;;5055734;28;11539;-78
2024/01/27 09:51:17;;;;;;;;;22.75;18.25;;;;;;;;5067866;28;12553;-74
2024/01/27 09:53:46;;;;;;;;;21.00;20.75;;;;;;;;5067451;28;11554;-75
2024/01/27 09:56:18;;;;;;;;;27.00;23.00;;;;;;;;5066083;28;11540;-76
2024/01/27 09:58:45;;;;;;;;;47.25;42.25;;;;;;;;5066488;28;11608;-78
2024/01/27 10:01:13;;;;;;;;;31.00;25.50;;;;;;;;5067203;28;11622;-76
2024/01/27 10:03:43;;;;;;;;;30.75;28.25;;;;;;;;5067528;28;11515;-75
2024/01/27 10:06:11;;;;;;;;;23.75;19.25;;;;;;;;5067661;28;11553;-76
2024/01/27 10:08:39;;;;;;;;;21.25;21.25;;;;;;;;5067351;28;11533;-76
2024/01/27 10:11:08;;;;;;;;;40.75;36.75;;;;;;;;5066606;28;11661;-75
2024/01/27 10:13:36;;;;;;;;;56.75;45.50;;;;;;;;5066678;28;11606;-78
2024/01/27 10:16:06;;;;;;;;;40.25;36.00;;;;;;;;5067037;28;11537;-77
2024/01/27 10:18:36;;;;;;;;;42.25;36.25;;;;;;;;5067477;28;11564;-79
2024/01/27 10:21:18;;;;;;;;;36.50;26.50;;;;;;;;5048736;28;11658;-74
2024/01/27 10:23:45;;;;;;;;;43.75;39.75;;;;;;;;5064035;28;11536;-79
2024/01/27 10:26:13;;;;;;;;;44.75;38.50;;;;;;;;5069433;28;11670;-73
2024/01/27 10:28:42;;;;;;;;;27.00;23.75;;;;;;;;5067283;28;11567;-79
2024/01/27 10:31:10;;;;;;;;;26.50;25.00;;;;;;;;5061230;28;11517;-74
2024/01/27 10:33:55;;;;;;;;;16.25;14.00;;;;;;;;5068659;28;11536;-78
2024/01/27 10:36:23;;;;;;;;;13.50;10.25;;;;;;;;5073238;28;11559;-77
2024/01/27 10:38:52;;;;;;;;;12.25;12.00;;;;;;;;5067032;28;11544;-73
2024/01/27 10:41:24;;;;;;;;;20.50;17.25;;;;;;;;5058015;28;11609;-73
2024/01/27 10:43:56;;;;;;;;;12.75;12.75;;;;;;;;5071129;28;11521;-78
2024/01/27 10:46:33;;;;;;;;;12.75;10.00;;;;;;;;5069757;28;11581;-76
2024/01/27 10:49:13;;;;;;;;;14.50;14.50;;;;;;;;5019222;28;11447;-74
2024/01/27 10:51:45;;;;;;;;;18.00;18.00;;;;;;;;5069929;28;11583;-78
2024/01/27 10:54:16;;;;;;;;;11.25;11.25;;;;;;;;5070596;28;11543;-74
2024/01/27 10:56:45;;;;;;;;;16.75;13.00;;;;;;;;5069966;28;11469;-75
2024/01/27 10:59:14;;;;;;;;;15.00;10.25;;;;;;;;5070163;28;11464;-74
2024/01/27 11:01:44;;;;;;;;;13.25;11.50;;;;;;;;5069922;28;11395;-81
2024/01/27 11:04:13;;;;;;;;;19.25;17.75;;;;;;;;5069347;28;11498;-72
2024/01/27 11:06:42;;;;;;;;;8.75;8.75;;;;;;;;5070988;28;11439;-71
2024/01/27 11:09:15;;;;;;;;;11.25;9.50;;;;;;;;5070337;28;11460;-72
2024/01/27 11:11:46;;;;;;;;;13.25;13.25;;;;;;;;5070621;28;11466;-72
2024/01/27 11:14:16;;;;;;;;;10.50;9.00;;;;;;;;5070597;28;11466;-73
2024/01/27 11:16:47;;;;;;;;;10.00;8.50;;;;;;;;5069625;28;11176;-74
2024/01/27 11:19:20;;;;;;;;;7.00;7.00;;;;;;;;5069890;28;11106;-74
2024/01/27 11:21:48;;;;;;;;;9.25;7.75;;;;;;;;5069710;28;10891;-72
2024/01/27 11:24:17;;;;;;;;;14.50;11.50;;;;;;;;5069599;28;10822;-74
2024/01/27 11:26:47;;;;;;;;;13.50;11.50;;;;;;;;5067762;28;10867;-73
2024/01/27 11:29:20;;;;;;;;;11.25;11.25;;;;;;;;5069504;28;11691;-72
2024/01/27 11:31:49;;;;;;;;;11.50;10.75;;;;;;;;5066119;28;10749;-72
2024/01/27 11:34:19;;;;;;;;;11.00;9.25;;;;;;;;5067068;28;10617;-74
2024/01/27 11:36:48;;;;;;;;;10.75;10.00;;;;;;;;5070940;28;10552;-73
2024/01/27 11:39:31;;;;;;;;;14.50;11.50;;;;;;;;5072351;28;10638;-73
2024/01/27 11:42:06;;;;;;;;;24.25;18.25;;;;;;;;5062048;28;10496;-74
2024/01/27 11:44:35;;;;;;;;;18.75;16.50;;;;;;;;5062737;28;10731;-73
2024/01/27 11:47:03;;;;;;;;;18.50;16.25;;;;;;;;5070955;28;10570;-73
2024/01/27 11:49:30;;;;;;;;;10.25;9.75;;;;;;;;5051055;28;10722;-73
2024/01/27 11:51:59;;;;;;;;;23.25;18.50;;;;;;;;5069155;28;10559;-74
2024/01/27 11:54:26;;;;;;;;;18.75;16.50;;;;;;;;5069008;28;10687;-73
2024/01/27 11:56:53;;;;;;;;;13.75;12.75;;;;;;;;5068558;28;10717;-74
2024/01/27 11:59:22;;;;;;;;;17.50;16.00;;;;;;;;5069153;28;11425;-73
2024/01/27 12:01:50;;;;;;;;;15.00;13.75;;;;;;;;5067144;28;10597;-74
2024/01/27 12:04:17;;;;;;;;;14.00;13.75;;;;;;;;5069101;28;10556;-75
2024/01/27 12:06:46;;;;;;;;;15.00;15.00;;;;;;;;5069634;28;10551;-74
2024/01/27 12:09:18;;;;;;;;;10.00;10.00;;;;;;;;5069924;28;10677;-74
2024/01/27 12:11:48;;;;;;;;;12.00;11.00;;;;;;;;5070745;28;10681;-74
2024/01/27 12:14:15;;;;;;;;;19.75;18.00;;;;;;;;5070920;28;10814;-75
2024/01/27 12:16:52;;;;;;;;;15.50;12.50;;;;;;;;5071178;28;10668;-75
2024/01/27 12:19:19;;;;;;;;;12.75;12.75;;;;;;;;5071782;28;10656;-72
2024/01/27 12:21:49;;;;;;;;;10.50;9.00;;;;;;;;5065259;28;10644;-74
2024/01/27 12:24:19;;;;;;;;;22.75;20.50;;;;;;;;5070251;28;10696;-74
2024/01/27 12:26:51;;;;;;;;;13.00;12.25;;;;;;;;5072086;28;10804;-72
2024/01/27 12:29:20;;;;;;;;;22.50;20.75;;;;;;;;5062783;28;10966;-72
2024/01/27 12:31:48;;;;;;;;;20.25;17.25;;;;;;;;5068060;28;11045;-72
2024/01/27 12:34:15;;;;;;;;;17.00;12.25;;;;;;;;5069034;28;11604;-71
2024/01/27 12:36:43;;;;;;;;;15.50;15.50;;;;;;;;5068131;28;10848;-74
2024/01/27 12:39:11;;;;;;;;;18.00;18.00;;;;;;;;5068719;28;10732;-73
2024/01/27 12:41:42;;;;;;;;;18.25;15.50;;;;;;;;5066632;28;10806;-74
2024/01/27 12:44:09;;;;;;;;;14.00;14.00;;;;;;;;5058731;28;11438;-72
2024/01/27 12:46:36;;;;;;;;;15.50;14.00;;;;;;;;5067777;28;10748;-72
2024/01/27 12:49:04;;;;;;;;;18.00;15.25;;;;;;;;5067979;28;10718;-73
2024/01/27 12:51:31;;;;;;;;;14.25;14.25;;;;;;;;5067787;28;10503;-74
2024/01/27 12:54:01;;;;;;;;;12.75;12.75;;;;;;;;5068508;28;10560;-72
2024/01/27 12:56:29;;;;;;;;;12.50;12.50;;;;;;;;5067384;28;10312;-73
2024/01/27 12:58:57;;;;;;;;;14.00;14.00;;;;;;;;5067815;28;10227;-75
2024/01/27 13:01:24;;;;;;;;;24.75;23.50;;;;;;;;5067309;28;10194;-73
2024/01/27 13:03:52;;;;;;;;;21.75;20.00;;;;;;;;5067887;28;11550;-73
2024/01/27 13:06:20;;;;;;;;;18.00;16.00;;;;;;;;5068142;28;10587;-74
2024/01/27 13:08:50;;;;;;;;;15.50;14.50;;;;;;;;5062684;28;10319;-73
2024/01/27 13:11:18;;;;;;;;;7.25;7.25;;;;;;;;5067365;28;10246;-72
2024/01/27 13:13:45;;;;;;;;;7.00;5.00;;;;;;;;5067208;28;9913;-72
2024/01/27 13:16:15;;;;;;;;;8.50;7.00;;;;;;;;5067477;28;9767;-74
2024/01/27 13:18:42;;;;;;;;;6.25;6.25;;;;;;;;5067185;28;9834;-72
2024/01/27 13:21:09;;;;;;;;;7.75;3.50;;;;;;;;5067869;28;9820;-74
2024/01/27 13:23:36;;;;;;;;;3.25;3.25;;;;;;;;5068033;28;9699;-73
2024/01/27 13:26:04;;;;;;;;;2.67;2.00;;;;;;;;5065022;28;9725;-74
2024/01/27 13:28:31;;;;;;;;;3.00;3.00;;;;;;;;5067083;28;9642;-72
2024/01/27 13:31:01;;;;;;;;;2.25;2.25;;;;;;;;5066867;28;9432;-75
2024/01/27 13:33:30;;;;;;;;;1.50;1.50;;;;;;;;5067817;28;9647;-73
2024/01/27 13:35:57;;;;;;;;;4.75;4.00;;;;;;;;5067227;28;9556;-73
2024/01/27 13:38:25;;;;;;;;;4.00;4.00;;;;;;;;5067089;28;9628;-72
2024/01/27 13:40:52;;;;;;;;;8.00;6.50;;;;;;;;5063570;28;9619;-73
2024/01/27 13:43:20;;;;;;;;;6.00;6.00;;;;;;;;5056551;28;9764;-74
2024/01/27 13:45:47;;;;;;;;;9.75;8.75;;;;;;;;5068983;28;9894;-73
2024/01/27 13:48:15;;;;;;;;;5.50;5.00;;;;;;;;5066635;28;9952;-73
2024/01/27 13:50:45;;;;;;;;;11.00;5.75;;;;;;;;5067289;28;9962;-76
2024/01/27 13:53:12;;;;;;;;;5.25;4.75;;;;;;;;5066650;28;9940;-74
2024/01/27 13:55:40;;;;;;;;;6.75;6.75;;;;;;;;5067347;28;9936;-75
2024/01/27 13:58:07;;;;;;;;;6.00;6.00;;;;;;;;5067718;28;9927;-75
2024/01/27 14:00:35;;;;;;;;;10.25;8.25;;;;;;;;5068843;28;9822;-77
2024/01/27 14:03:02;;;;;;;;;11.25;11.25;;;;;;;;5069203;28;10137;-73
2024/01/27 14:05:30;;;;;;;;;12.00;12.00;;;;;;;;5070029;28;10019;-77
2024/01/27 14:08:01;;;;;;;;;12.25;12.25;;;;;;;;5071198;28;10304;-74
2024/01/27 14:10:28;;;;;;;;;12.00;8.00;;;;;;;;5069413;28;10080;-76
2024/01/27 14:12:55;;;;;;;;;2.50;2.50;;;;;;;;5074226;28;10000;-75
2024/01/27 14:15:22;;;;;;;;;10.00;10.00;;;;;;;;5075103;28;10005;-72
2024/01/27 14:17:50;;;;;;;;;4.00;2.25;;;;;;;;5072648;28;10896;-73
2024/01/27 14:20:17;;;;;;;;;6.75;6.75;;;;;;;;5071130;28;9854;-73
2024/01/27 14:22:44;;;;;;;;;6.00;6.00;;;;;;;;5071281;28;10016;-73
2024/01/27 14:25:13;;;;;;;;;2.00;2.00;;;;;;;;5070665;28;10028;-75
2024/01/27 14:27:40;;;;;;;;;2.25;2.25;;;;;;;;5069697;28;9891;-74
2024/01/27 14:30:10;;;;;;;;;2.50;2.50;;;;;;;;5059452;28;10536;-73
2024/01/27 14:32:37;;;;;;;;;5.25;4.50;;;;;;;;5065279;28;9532;-73
2024/01/27 14:35:06;;;;;;;;;11.25;7.00;;;;;;;;5062837;28;9933;-73